sensor_id;sensor_type;location;lat;lon;timestamp;P1;durP1;ratioP1;P2;durP2;ratioP2
57889;SDS011;43707;50.184;18.966;2023-03-04T00:00:10;0.00;;;0.00;;
57889;SDS011;43707;50.184;18.966;2023-03-04T00:02:36;0.00;;;0.00;;
57889;SDS011;43707;50.184;18.966;2023-03-04T00:05:01;0.00;;;0.00;;
57889;SDS011;43707;50.184;18.966;2023-03-04T00:07:28;3.00;;;0.00;;
57889;SDS011;43707;50.184;18.966;2023-03-04T00:09:53;0.00;;;0.00;;
57889;SDS011;43707;50.184;18.966;2023-03-04T00:12:19;0.00;;;0.00;;
57889;SDS011;43707;50.184;18.966;2023-03-04T00:14:44;0.60;;;0.20;;
57889;SDS011;43707;50.184;18.966;2023-03-04T00:17:09;0.10;;;0.00;;
57889;SDS011;43707;50.184;18.966;2023-03-04T00:19:35;2.40;;;0.10;;
57889;SDS011;43707;50.184;18.966;2023-03-04T00:22:00;0.50;;;0.00;;
57889;SDS011;43707;50.184;18.966;2023-03-04T00:24:28;1.00;;;0.10;;
57889;SDS011;43707;50.184;18.966;2023-03-04T00:26:53;0.00;;;0.00;;
57889;SDS011;43707;50.184;18.966;2023-03-04T00:29:18;0.00;;;0.00;;
57889;SDS011;43707;50.184;18.966;2023-03-04T00:31:44;0.00;;;0.00;;
57889;SDS011;43707;50.184;18.966;2023-03-04T00:34:09;0.00;;;0.00;;
57889;SDS011;43707;50.184;18.966;2023-03-04T00:36:34;0.00;;;0.00;;
57889;SDS011;43707;50.184;18.966;2023-03-04T00:39:00;0.00;;;0.00;;
57889;SDS011;43707;50.184;18.966;2023-03-04T00:41:25;0.00;;;0.00;;
57889;SDS011;43707;50.184;18.966;2023-03-04T00:43:51;0.00;;;0.00;;
57889;SDS011;43707;50.184;18.966;2023-03-04T00:46:16;0.00;;;0.00;;
57889;SDS011;43707;50.184;18.966;2023-03-04T00:48:41;0.00;;;0.00;;
57889;SDS011;43707;50.184;18.966;2023-03-04T00:51:07;0.00;;;0.00;;
57889;SDS011;43707;50.184;18.966;2023-03-04T00:53:33;0.00;;;0.00;;
57889;SDS011;43707;50.184;18.966;2023-03-04T00:55:58;0.00;;;0.00;;
57889;SDS011;43707;50.184;18.966;2023-03-04T00:58:23;0.00;;;0.00;;
57889;SDS011;43707;50.184;18.966;2023-03-04T01:00:49;0.00;;;0.00;;
57889;SDS011;43707;50.184;18.966;2023-03-04T01:03:14;0.00;;;0.00;;
57889;SDS011;43707;50.184;18.966;2023-03-04T01:05:39;2.10;;;0.00;;
57889;SDS011;43707;50.184;18.966;2023-03-04T01:08:05;0.00;;;0.00;;
57889;SDS011;43707;50.184;18.966;2023-03-04T01:10:31;0.00;;;0.00;;
57889;SDS011;43707;50.184;18.966;2023-03-04T01:12:57;0.00;;;0.00;;
57889;SDS011;43707;50.184;18.966;2023-03-04T01:15:22;0.00;;;0.00;;
57889;SDS011;43707;50.184;18.966;2023-03-04T01:17:48;0.70;;;0.00;;
57889;SDS011;43707;50.184;18.966;2023-03-04T01:20:13;0.00;;;0.00;;
57889;SDS011;43707;50.184;18.966;2023-03-04T01:22:39;0.00;;;0.00;;
57889;SDS011;43707;50.184;18.966;2023-03-04T01:25:04;0.00;;;0.00;;
57889;SDS011;43707;50.184;18.966;2023-03-04T01:27:30;0.40;;;0.00;;
57889;SDS011;43707;50.184;18.966;2023-03-04T01:29:55;0.00;;;0.00;;
57889;SDS011;43707;50.184;18.966;2023-03-04T01:32:21;0.00;;;0.00;;
57889;SDS011;43707;50.184;18.966;2023-03-04T01:34:46;0.00;;;0.00;;
57889;SDS011;43707;50.184;18.966;2023-03-04T01:37:12;0.00;;;0.00;;
57889;SDS011;43707;50.184;18.966;2023-03-04T01:39:39;0.00;;;0.00;;
57889;SDS011;43707;50.184;18.966;2023-03-04T01:42:06;0.00;;;0.00;;
57889;SDS011;43707;50.184;18.966;2023-03-04T01:44:39;0.00;;;0.00;;
57889;SDS011;43707;50.184;18.966;2023-03-04T01:47:05;0.00;;;0.00;;
57889;SDS011;43707;50.184;18.966;2023-03-04T01:49:30;0.00;;;0.00;;
57889;SDS011;43707;50.184;18.966;2023-03-04T01:51:55;0.00;;;0.00;;
57889;SDS011;43707;50.184;18.966;2023-03-04T01:54:21;0.00;;;0.00;;
57889;SDS011;43707;50.184;18.966;2023-03-04T01:56:47;0.00;;;0.00;;
57889;SDS011;43707;50.184;18.966;2023-03-04T01:59:22;0.00;;;0.00;;
57889;SDS011;43707;50.184;18.966;2023-03-04T02:01:54;0.00;;;0.00;;
57889;SDS011;43707;50.184;18.966;2023-03-04T02:04:21;0.00;;;0.00;;
57889;SDS011;43707;50.184;18.966;2023-03-04T02:06:49;0.00;;;0.00;;
57889;SDS011;43707;50.184;18.966;2023-03-04T02:09:15;0.00;;;0.00;;
57889;SDS011;43707;50.184;18.966;2023-03-04T02:11:41;0.00;;;0.00;;
57889;SDS011;43707;50.184;18.966;2023-03-04T02:14:07;0.00;;;0.00;;
57889;SDS011;43707;50.184;18.966;2023-03-04T02:16:34;0.00;;;0.00;;
57889;SDS011;43707;50.184;18.966;2023-03-04T02:18:59;0.00;;;0.00;;
57889;SDS011;43707;50.184;18.966;2023-03-04T02:21:26;0.00;;;0.00;;
57889;SDS011;43707;50.184;18.966;2023-03-04T02:23:58;0.00;;;0.00;;
57889;SDS011;43707;50.184;18.966;2023-03-04T02:26:36;0.00;;;0.00;;
57889;SDS011;43707;50.184;18.966;2023-03-04T02:29:05;0.00;;;0.00;;
57889;SDS011;43707;50.184;18.966;2023-03-04T02:31:38;0.00;;;0.00;;
57889;SDS011;43707;50.184;18.966;2023-03-04T02:34:14;0.00;;;0.00;;
57889;SDS011;43707;50.184;18.966;2023-03-04T02:36:42;0.00;;;0.00;;
57889;SDS011;43707;50.184;18.966;2023-03-04T02:39:12;0.00;;;0.00;;
57889;SDS011;43707;50.184;18.966;2023-03-04T02:41:50;0.00;;;0.00;;
57889;SDS011;43707;50.184;18.966;2023-03-04T02:46:42;0.00;;;0.00;;
57889;SDS011;43707;50.184;18.966;2023-03-04T02:49:07;0.00;;;0.00;;
57889;SDS011;43707;50.184;18.966;2023-03-04T02:51:32;0.00;;;0.00;;
57889;SDS011;43707;50.184;18.966;2023-03-04T02:53:58;0.00;;;0.00;;
57889;SDS011;43707;50.184;18.966;2023-03-04T02:56:23;0.00;;;0.00;;
57889;SDS011;43707;50.184;18.966;2023-03-04T02:58:49;0.00;;;0.00;;
57889;SDS011;43707;50.184;18.966;2023-03-04T03:01:14;0.00;;;0.00;;
57889;SDS011;43707;50.184;18.966;2023-03-04T03:03:39;0.00;;;0.00;;
57889;SDS011;43707;50.184;18.966;2023-03-04T03:06:05;0.00;;;0.00;;
57889;SDS011;43707;50.184;18.966;2023-03-04T03:08:30;0.00;;;0.00;;
57889;SDS011;43707;50.184;18.966;2023-03-04T03:10:56;0.00;;;0.00;;
57889;SDS011;43707;50.184;18.966;2023-03-04T03:13:21;0.10;;;0.00;;
57889;SDS011;43707;50.184;18.966;2023-03-04T03:15:46;0.00;;;0.00;;
57889;SDS011;43707;50.184;18.966;2023-03-04T03:18:12;0.00;;;0.00;;
57889;SDS011;43707;50.184;18.966;2023-03-04T03:20:37;0.00;;;0.00;;
57889;SDS011;43707;50.184;18.966;2023-03-04T03:23:03;0.00;;;0.00;;
57889;SDS011;43707;50.184;18.966;2023-03-04T03:25:28;0.00;;;0.00;;
57889;SDS011;43707;50.184;18.966;2023-03-04T03:27:53;6.80;;;0.10;;
57889;SDS011;43707;50.184;18.966;2023-03-04T03:30:19;2.10;;;0.00;;
57889;SDS011;43707;50.184;18.966;2023-03-04T03:32:45;0.00;;;0.00;;
57889;SDS011;43707;50.184;18.966;2023-03-04T03:35:10;0.50;;;0.00;;
57889;SDS011;43707;50.184;18.966;2023-03-04T03:37:35;0.00;;;0.00;;
57889;SDS011;43707;50.184;18.966;2023-03-04T03:40:01;2.30;;;0.00;;
57889;SDS011;43707;50.184;18.966;2023-03-04T03:42:26;0.00;;;0.00;;
57889;SDS011;43707;50.184;18.966;2023-03-04T03:44:52;0.00;;;0.00;;
57889;SDS011;43707;50.184;18.966;2023-03-04T03:47:17;0.00;;;0.00;;
57889;SDS011;43707;50.184;18.966;2023-03-04T03:49:42;0.00;;;0.00;;
57889;SDS011;43707;50.184;18.966;2023-03-04T03:52:08;0.50;;;0.00;;
57889;SDS011;43707;50.184;18.966;2023-03-04T03:54:34;0.00;;;0.00;;
57889;SDS011;43707;50.184;18.966;2023-03-04T03:56:59;0.00;;;0.00;;
57889;SDS011;43707;50.184;18.966;2023-03-04T03:59:25;0.10;;;0.00;;
57889;SDS011;43707;50.184;18.966;2023-03-04T04:01:50;0.00;;;0.00;;
57889;SDS011;43707;50.184;18.966;2023-03-04T04:04:15;0.00;;;0.00;;
57889;SDS011;43707;50.184;18.966;2023-03-04T04:06:41;0.00;;;0.00;;
57889;SDS011;43707;50.184;18.966;2023-03-04T04:09:06;0.00;;;0.00;;
57889;SDS011;43707;50.184;18.966;2023-03-04T04:11:32;0.00;;;0.00;;
57889;SDS011;43707;50.184;18.966;2023-03-04T04:13:57;0.00;;;0.00;;
57889;SDS011;43707;50.184;18.966;2023-03-04T04:16:22;0.00;;;0.00;;
57889;SDS011;43707;50.184;18.966;2023-03-04T04:18:48;0.00;;;0.00;;
57889;SDS011;43707;50.184;18.966;2023-03-04T04:21:13;0.00;;;0.00;;
57889;SDS011;43707;50.184;18.966;2023-03-04T04:23:39;0.00;;;0.00;;
57889;SDS011;43707;50.184;18.966;2023-03-04T04:26:04;0.00;;;0.00;;
57889;SDS011;43707;50.184;18.966;2023-03-04T04:28:29;0.00;;;0.00;;
57889;SDS011;43707;50.184;18.966;2023-03-04T04:30:55;0.00;;;0.00;;
57889;SDS011;43707;50.184;18.966;2023-03-04T04:33:20;0.00;;;0.00;;
57889;SDS011;43707;50.184;18.966;2023-03-04T04:35:45;0.00;;;0.00;;
57889;SDS011;43707;50.184;18.966;2023-03-04T04:38:11;0.00;;;0.00;;
57889;SDS011;43707;50.184;18.966;2023-03-04T04:40:36;0.00;;;0.00;;
57889;SDS011;43707;50.184;18.966;2023-03-04T04:43:02;0.00;;;0.00;;
57889;SDS011;43707;50.184;18.966;2023-03-04T04:45:27;0.00;;;0.00;;
57889;SDS011;43707;50.184;18.966;2023-03-04T04:47:53;0.00;;;0.00;;
57889;SDS011;43707;50.184;18.966;2023-03-04T04:50:21;0.00;;;0.00;;
57889;SDS011;43707;50.184;18.966;2023-03-04T04:52:48;0.00;;;0.00;;
57889;SDS011;43707;50.184;18.966;2023-03-04T04:55:13;0.00;;;0.00;;
57889;SDS011;43707;50.184;18.966;2023-03-04T04:57:38;0.00;;;0.00;;
57889;SDS011;43707;50.184;18.966;2023-03-04T05:00:05;0.00;;;0.00;;
57889;SDS011;43707;50.184;18.966;2023-03-04T05:02:31;0.00;;;0.00;;
57889;SDS011;43707;50.184;18.966;2023-03-04T05:05:00;0.00;;;0.00;;
57889;SDS011;43707;50.184;18.966;2023-03-04T05:07:26;0.00;;;0.00;;
57889;SDS011;43707;50.184;18.966;2023-03-04T05:09:52;0.00;;;0.00;;
57889;SDS011;43707;50.184;18.966;2023-03-04T05:12:17;0.00;;;0.00;;
57889;SDS011;43707;50.184;18.966;2023-03-04T05:14:43;1.20;;;0.00;;
57889;SDS011;43707;50.184;18.966;2023-03-04T05:17:08;0.00;;;0.00;;
57889;SDS011;43707;50.184;18.966;2023-03-04T05:19:33;0.00;;;0.00;;
57889;SDS011;43707;50.184;18.966;2023-03-04T05:21:59;0.40;;;0.00;;
57889;SDS011;43707;50.184;18.966;2023-03-04T05:24:24;0.00;;;0.00;;
57889;SDS011;43707;50.184;18.966;2023-03-04T05:26:50;0.00;;;0.00;;
57889;SDS011;43707;50.184;18.966;2023-03-04T05:29:15;0.00;;;0.00;;
57889;SDS011;43707;50.184;18.966;2023-03-04T05:31:40;0.20;;;0.00;;
57889;SDS011;43707;50.184;18.966;2023-03-04T05:34:06;0.00;;;0.00;;
57889;SDS011;43707;50.184;18.966;2023-03-04T05:36:31;0.00;;;0.00;;
57889;SDS011;43707;50.184;18.966;2023-03-04T05:38:56;0.00;;;0.00;;
57889;SDS011;43707;50.184;18.966;2023-03-04T05:41:22;0.00;;;0.00;;
57889;SDS011;43707;50.184;18.966;2023-03-04T05:43:48;0.00;;;0.00;;
57889;SDS011;43707;50.184;18.966;2023-03-04T05:46:14;0.00;;;0.00;;
57889;SDS011;43707;50.184;18.966;2023-03-04T05:48:42;0.00;;;0.00;;
57889;SDS011;43707;50.184;18.966;2023-03-04T05:51:07;0.00;;;0.00;;
57889;SDS011;43707;50.184;18.966;2023-03-04T05:53:33;0.70;;;0.00;;
57889;SDS011;43707;50.184;18.966;2023-03-04T05:56:10;0.00;;;0.00;;
57889;SDS011;43707;50.184;18.966;2023-03-04T05:58:41;0.00;;;0.00;;
57889;SDS011;43707;50.184;18.966;2023-03-04T06:01:07;0.00;;;0.00;;
57889;SDS011;43707;50.184;18.966;2023-03-04T06:03:33;0.00;;;0.00;;
57889;SDS011;43707;50.184;18.966;2023-03-04T06:05:58;0.00;;;0.00;;
57889;SDS011;43707;50.184;18.966;2023-03-04T06:08:24;0.00;;;0.00;;
57889;SDS011;43707;50.184;18.966;2023-03-04T06:10:53;0.00;;;0.00;;
57889;SDS011;43707;50.184;18.966;2023-03-04T06:13:20;0.00;;;0.00;;
57889;SDS011;43707;50.184;18.966;2023-03-04T06:15:46;0.00;;;0.00;;
57889;SDS011;43707;50.184;18.966;2023-03-04T06:18:11;0.00;;;0.00;;
57889;SDS011;43707;50.184;18.966;2023-03-04T06:20:37;0.00;;;0.00;;
57889;SDS011;43707;50.184;18.966;2023-03-04T06:23:03;0.00;;;0.00;;
57889;SDS011;43707;50.184;18.966;2023-03-04T06:25:28;0.00;;;0.00;;
57889;SDS011;43707;50.184;18.966;2023-03-04T06:27:54;0.00;;;0.00;;
57889;SDS011;43707;50.184;18.966;2023-03-04T06:30:20;0.00;;;0.00;;
57889;SDS011;43707;50.184;18.966;2023-03-04T06:32:45;3.90;;;0.00;;
57889;SDS011;43707;50.184;18.966;2023-03-04T06:35:13;0.00;;;0.00;;
57889;SDS011;43707;50.184;18.966;2023-03-04T06:37:38;0.00;;;0.00;;
57889;SDS011;43707;50.184;18.966;2023-03-04T06:40:04;0.00;;;0.00;;
57889;SDS011;43707;50.184;18.966;2023-03-04T06:42:31;0.00;;;0.00;;
57889;SDS011;43707;50.184;18.966;2023-03-04T06:44:57;0.40;;;0.00;;
57889;SDS011;43707;50.184;18.966;2023-03-04T06:47:23;0.30;;;0.00;;
57889;SDS011;43707;50.184;18.966;2023-03-04T06:49:48;0.00;;;0.00;;
57889;SDS011;43707;50.184;18.966;2023-03-04T06:52:13;0.00;;;0.00;;
57889;SDS011;43707;50.184;18.966;2023-03-04T06:54:39;0.00;;;0.00;;
57889;SDS011;43707;50.184;18.966;2023-03-04T06:57:04;1.20;;;0.00;;
57889;SDS011;43707;50.184;18.966;2023-03-04T06:59:30;0.00;;;0.00;;
57889;SDS011;43707;50.184;18.966;2023-03-04T07:01:56;0.00;;;0.00;;
57889;SDS011;43707;50.184;18.966;2023-03-04T07:04:21;0.00;;;0.00;;
57889;SDS011;43707;50.184;18.966;2023-03-04T07:06:47;0.00;;;0.00;;
57889;SDS011;43707;50.184;18.966;2023-03-04T07:09:13;0.10;;;0.00;;
57889;SDS011;43707;50.184;18.966;2023-03-04T07:11:39;3.20;;;0.60;;
57889;SDS011;43707;50.184;18.966;2023-03-04T07:14:04;0.80;;;0.50;;
57889;SDS011;43707;50.184;18.966;2023-03-04T07:16:29;0.50;;;0.50;;
57889;SDS011;43707;50.184;18.966;2023-03-04T07:18:55;1.10;;;0.70;;
57889;SDS011;43707;50.184;18.966;2023-03-04T07:21:20;1.00;;;0.70;;
57889;SDS011;43707;50.184;18.966;2023-03-04T07:23:46;1.00;;;0.90;;
57889;SDS011;43707;50.184;18.966;2023-03-04T07:26:12;0.80;;;0.70;;
57889;SDS011;43707;50.184;18.966;2023-03-04T07:28:37;1.20;;;0.80;;
57889;SDS011;43707;50.184;18.966;2023-03-04T07:31:07;1.00;;;0.90;;
57889;SDS011;43707;50.184;18.966;2023-03-04T07:33:33;2.90;;;1.00;;
57889;SDS011;43707;50.184;18.966;2023-03-04T07:35:59;3.60;;;0.90;;
57889;SDS011;43707;50.184;18.966;2023-03-04T07:38:24;2.10;;;1.30;;
57889;SDS011;43707;50.184;18.966;2023-03-04T07:40:56;1.50;;;0.80;;
57889;SDS011;43707;50.184;18.966;2023-03-04T07:45:48;0.90;;;0.80;;
57889;SDS011;43707;50.184;18.966;2023-03-04T07:48:13;1.20;;;0.90;;
57889;SDS011;43707;50.184;18.966;2023-03-04T07:50:38;0.70;;;0.60;;
57889;SDS011;43707;50.184;18.966;2023-03-04T07:53:04;1.00;;;0.80;;
57889;SDS011;43707;50.184;18.966;2023-03-04T07:55:29;1.00;;;0.70;;
57889;SDS011;43707;50.184;18.966;2023-03-04T07:57:55;0.80;;;0.70;;
57889;SDS011;43707;50.184;18.966;2023-03-04T08:00:21;0.80;;;0.70;;
57889;SDS011;43707;50.184;18.966;2023-03-04T08:02:47;1.30;;;1.00;;
57889;SDS011;43707;50.184;18.966;2023-03-04T08:05:12;0.90;;;0.70;;
57889;SDS011;43707;50.184;18.966;2023-03-04T08:07:38;1.10;;;0.70;;
57889;SDS011;43707;50.184;18.966;2023-03-04T08:10:03;0.80;;;0.70;;
57889;SDS011;43707;50.184;18.966;2023-03-04T08:12:29;1.00;;;0.90;;
57889;SDS011;43707;50.184;18.966;2023-03-04T08:14:54;0.70;;;0.60;;
57889;SDS011;43707;50.184;18.966;2023-03-04T08:17:19;0.60;;;0.60;;
57889;SDS011;43707;50.184;18.966;2023-03-04T08:19:45;4.10;;;0.90;;
57889;SDS011;43707;50.184;18.966;2023-03-04T08:22:10;4.60;;;0.90;;
57889;SDS011;43707;50.184;18.966;2023-03-04T08:24:36;2.60;;;1.00;;
57889;SDS011;43707;50.184;18.966;2023-03-04T08:27:02;1.20;;;1.00;;
57889;SDS011;43707;50.184;18.966;2023-03-04T08:29:27;1.20;;;0.90;;
57889;SDS011;43707;50.184;18.966;2023-03-04T08:31:53;1.60;;;1.10;;
57889;SDS011;43707;50.184;18.966;2023-03-04T08:34:20;1.70;;;1.00;;
57889;SDS011;43707;50.184;18.966;2023-03-04T08:36:48;2.30;;;1.40;;
57889;SDS011;43707;50.184;18.966;2023-03-04T08:39:14;1.80;;;1.20;;
57889;SDS011;43707;50.184;18.966;2023-03-04T08:41:40;1.40;;;1.00;;
57889;SDS011;43707;50.184;18.966;2023-03-04T08:44:06;1.60;;;0.90;;
57889;SDS011;43707;50.184;18.966;2023-03-04T08:46:35;1.70;;;1.10;;
57889;SDS011;43707;50.184;18.966;2023-03-04T08:49:02;1.60;;;1.10;;
57889;SDS011;43707;50.184;18.966;2023-03-04T08:51:28;0.60;;;0.60;;
57889;SDS011;43707;50.184;18.966;2023-03-04T08:53:53;1.30;;;0.90;;
57889;SDS011;43707;50.184;18.966;2023-03-04T08:56:19;0.80;;;0.60;;
57889;SDS011;43707;50.184;18.966;2023-03-04T08:58:44;1.00;;;0.80;;
57889;SDS011;43707;50.184;18.966;2023-03-04T09:01:10;0.80;;;0.80;;
57889;SDS011;43707;50.184;18.966;2023-03-04T09:03:36;0.80;;;0.70;;
57889;SDS011;43707;50.184;18.966;2023-03-04T09:06:02;1.30;;;0.80;;
57889;SDS011;43707;50.184;18.966;2023-03-04T09:08:28;1.00;;;0.70;;
57889;SDS011;43707;50.184;18.966;2023-03-04T09:10:54;0.70;;;0.60;;
57889;SDS011;43707;50.184;18.966;2023-03-04T09:13:22;0.80;;;0.70;;
57889;SDS011;43707;50.184;18.966;2023-03-04T09:15:49;0.50;;;0.50;;
57889;SDS011;43707;50.184;18.966;2023-03-04T09:18:15;0.70;;;0.70;;
57889;SDS011;43707;50.184;18.966;2023-03-04T09:20:42;0.80;;;0.70;;
57889;SDS011;43707;50.184;18.966;2023-03-04T09:23:08;0.90;;;0.70;;
57889;SDS011;43707;50.184;18.966;2023-03-04T09:25:34;1.00;;;0.70;;
57889;SDS011;43707;50.184;18.966;2023-03-04T09:28:00;0.60;;;0.60;;
57889;SDS011;43707;50.184;18.966;2023-03-04T09:30:25;0.90;;;0.60;;
57889;SDS011;43707;50.184;18.966;2023-03-04T09:32:51;0.70;;;0.60;;
57889;SDS011;43707;50.184;18.966;2023-03-04T09:35:16;0.90;;;0.70;;
57889;SDS011;43707;50.184;18.966;2023-03-04T09:37:41;0.90;;;0.80;;
57889;SDS011;43707;50.184;18.966;2023-03-04T09:40:07;0.70;;;0.60;;
57889;SDS011;43707;50.184;18.966;2023-03-04T09:42:37;1.70;;;0.80;;
57889;SDS011;43707;50.184;18.966;2023-03-04T09:45:10;4.10;;;0.80;;
57889;SDS011;43707;50.184;18.966;2023-03-04T09:47:39;1.30;;;0.90;;
57889;SDS011;43707;50.184;18.966;2023-03-04T09:50:06;0.90;;;0.80;;
57889;SDS011;43707;50.184;18.966;2023-03-04T09:52:38;1.30;;;1.20;;
57889;SDS011;43707;50.184;18.966;2023-03-04T09:55:17;0.80;;;0.80;;
57889;SDS011;43707;50.184;18.966;2023-03-04T10:05:56;4.00;;;1.20;;
57889;SDS011;43707;50.184;18.966;2023-03-04T10:11:14;1.30;;;1.20;;
57889;SDS011;43707;50.184;18.966;2023-03-04T10:16:08;1.20;;;1.10;;
57889;SDS011;43707;50.184;18.966;2023-03-04T10:18:38;1.40;;;1.20;;
57889;SDS011;43707;50.184;18.966;2023-03-04T10:23:59;1.20;;;1.00;;
57889;SDS011;43707;50.184;18.966;2023-03-04T10:26:29;1.20;;;1.10;;
57889;SDS011;43707;50.184;18.966;2023-03-04T10:28:57;3.00;;;1.40;;
57889;SDS011;43707;50.184;18.966;2023-03-04T10:31:31;1.80;;;1.30;;
57889;SDS011;43707;50.184;18.966;2023-03-04T10:34:03;1.40;;;1.10;;
57889;SDS011;43707;50.184;18.966;2023-03-04T10:39:02;1.30;;;1.20;;
57889;SDS011;43707;50.184;18.966;2023-03-04T10:41:31;1.40;;;1.30;;
57889;SDS011;43707;50.184;18.966;2023-03-04T10:46:22;1.60;;;1.40;;
57889;SDS011;43707;50.184;18.966;2023-03-04T10:48:48;2.60;;;1.60;;
57889;SDS011;43707;50.184;18.966;2023-03-04T10:53:43;2.00;;;1.80;;
57889;SDS011;43707;50.184;18.966;2023-03-04T10:59:28;2.50;;;2.00;;
57889;SDS011;43707;50.184;18.966;2023-03-04T11:02:00;2.30;;;1.60;;
57889;SDS011;43707;50.184;18.966;2023-03-04T11:04:32;2.50;;;2.00;;
57889;SDS011;43707;50.184;18.966;2023-03-04T11:06:58;2.40;;;1.80;;
57889;SDS011;43707;50.184;18.966;2023-03-04T11:09:24;2.40;;;1.90;;
57889;SDS011;43707;50.184;18.966;2023-03-04T11:11:52;6.20;;;1.80;;
57889;SDS011;43707;50.184;18.966;2023-03-04T11:14:21;2.00;;;1.80;;
57889;SDS011;43707;50.184;18.966;2023-03-04T11:16:51;2.90;;;1.90;;
57889;SDS011;43707;50.184;18.966;2023-03-04T11:19:18;2.80;;;2.20;;
57889;SDS011;43707;50.184;18.966;2023-03-04T11:21:45;2.90;;;1.80;;
57889;SDS011;43707;50.184;18.966;2023-03-04T11:24:20;1.60;;;1.30;;
57889;SDS011;43707;50.184;18.966;2023-03-04T11:26:55;2.30;;;1.80;;
57889;SDS011;43707;50.184;18.966;2023-03-04T11:34:33;2.70;;;2.20;;
57889;SDS011;43707;50.184;18.966;2023-03-04T11:37:23;5.60;;;2.40;;
57889;SDS011;43707;50.184;18.966;2023-03-04T11:39:55;2.40;;;1.50;;
57889;SDS011;43707;50.184;18.966;2023-03-04T11:45:30;1.50;;;1.20;;
57889;SDS011;43707;50.184;18.966;2023-03-04T11:50:51;1.50;;;1.20;;
57889;SDS011;43707;50.184;18.966;2023-03-04T11:53:24;1.70;;;1.40;;
57889;SDS011;43707;50.184;18.966;2023-03-04T11:59:10;2.00;;;1.40;;
57889;SDS011;43707;50.184;18.966;2023-03-04T12:07:45;1.90;;;1.60;;
57889;SDS011;43707;50.184;18.966;2023-03-04T12:22:23;1.80;;;1.60;;
57889;SDS011;43707;50.184;18.966;2023-03-04T12:35:46;2.00;;;1.80;;
57889;SDS011;43707;50.184;18.966;2023-03-04T12:44:22;2.40;;;1.90;;
57889;SDS011;43707;50.184;18.966;2023-03-04T12:55:38;2.50;;;1.80;;
57889;SDS011;43707;50.184;18.966;2023-03-04T12:58:05;2.30;;;1.80;;
57889;SDS011;43707;50.184;18.966;2023-03-04T13:08:32;1.50;;;1.00;;
57889;SDS011;43707;50.184;18.966;2023-03-04T13:11:41;1.80;;;1.40;;
57889;SDS011;43707;50.184;18.966;2023-03-04T13:16:45;1.40;;;1.20;;
57889;SDS011;43707;50.184;18.966;2023-03-04T13:24:56;1.70;;;1.10;;
57889;SDS011;43707;50.184;18.966;2023-03-04T13:38:35;7.50;;;1.50;;
57889;SDS011;43707;50.184;18.966;2023-03-04T13:43:45;2.50;;;1.80;;
57889;SDS011;43707;50.184;18.966;2023-03-04T13:56:31;3.90;;;1.50;;
57889;SDS011;43707;50.184;18.966;2023-03-04T14:06:40;1.70;;;1.20;;
57889;SDS011;43707;50.184;18.966;2023-03-04T14:09:17;1.80;;;1.30;;
57889;SDS011;43707;50.184;18.966;2023-03-04T14:11:44;1.90;;;1.30;;
57889;SDS011;43707;50.184;18.966;2023-03-04T14:14:11;1.70;;;1.30;;
57889;SDS011;43707;50.184;18.966;2023-03-04T14:16:44;1.10;;;0.90;;
57889;SDS011;43707;50.184;18.966;2023-03-04T14:19:15;2.00;;;1.10;;
57889;SDS011;43707;50.184;18.966;2023-03-04T14:21:55;2.00;;;1.20;;
57889;SDS011;43707;50.184;18.966;2023-03-04T14:24:21;2.00;;;1.50;;
57889;SDS011;43707;50.184;18.966;2023-03-04T14:26:48;2.00;;;1.60;;
57889;SDS011;43707;50.184;18.966;2023-03-04T14:29:32;2.30;;;1.40;;
57889;SDS011;43707;50.184;18.966;2023-03-04T14:31:57;2.60;;;1.70;;
57889;SDS011;43707;50.184;18.966;2023-03-04T14:34:25;3.80;;;1.60;;
57889;SDS011;43707;50.184;18.966;2023-03-04T14:36:57;2.90;;;1.40;;
57889;SDS011;43707;50.184;18.966;2023-03-04T14:39:23;2.00;;;1.50;;
57889;SDS011;43707;50.184;18.966;2023-03-04T14:41:50;1.60;;;1.30;;
57889;SDS011;43707;50.184;18.966;2023-03-04T14:46:55;1.90;;;1.20;;
57889;SDS011;43707;50.184;18.966;2023-03-04T14:49:23;2.10;;;1.50;;
57889;SDS011;43707;50.184;18.966;2023-03-04T14:51:49;2.20;;;1.60;;
57889;SDS011;43707;50.184;18.966;2023-03-04T14:55:02;1.60;;;1.40;;
57889;SDS011;43707;50.184;18.966;2023-03-04T14:59:48;2.10;;;1.50;;
57889;SDS011;43707;50.184;18.966;2023-03-04T15:04:43;2.30;;;1.40;;
57889;SDS011;43707;50.184;18.966;2023-03-04T15:07:28;2.20;;;1.30;;
57889;SDS011;43707;50.184;18.966;2023-03-04T15:09:55;2.10;;;1.60;;
57889;SDS011;43707;50.184;18.966;2023-03-04T15:12:22;2.70;;;1.50;;
57889;SDS011;43707;50.184;18.966;2023-03-04T15:14:51;1.90;;;1.20;;
57889;SDS011;43707;50.184;18.966;2023-03-04T15:22:31;1.70;;;1.30;;
57889;SDS011;43707;50.184;18.966;2023-03-04T15:24:57;1.90;;;1.30;;
57889;SDS011;43707;50.184;18.966;2023-03-04T15:27:23;1.90;;;1.60;;
57889;SDS011;43707;50.184;18.966;2023-03-04T15:29:51;2.60;;;2.00;;
57889;SDS011;43707;50.184;18.966;2023-03-04T15:32:20;1.80;;;1.50;;
57889;SDS011;43707;50.184;18.966;2023-03-04T15:34:47;2.70;;;1.70;;
57889;SDS011;43707;50.184;18.966;2023-03-04T15:37:16;1.60;;;1.50;;
57889;SDS011;43707;50.184;18.966;2023-03-04T15:39:44;2.80;;;1.70;;
57889;SDS011;43707;50.184;18.966;2023-03-04T15:42:10;2.50;;;1.40;;
57889;SDS011;43707;50.184;18.966;2023-03-04T15:44:37;2.40;;;1.40;;
57889;SDS011;43707;50.184;18.966;2023-03-04T15:47:02;1.60;;;1.50;;
57889;SDS011;43707;50.184;18.966;2023-03-04T15:49:28;2.10;;;1.60;;
57889;SDS011;43707;50.184;18.966;2023-03-04T15:51:53;1.90;;;1.40;;
57889;SDS011;43707;50.184;18.966;2023-03-04T15:54:19;3.40;;;1.90;;
57889;SDS011;43707;50.184;18.966;2023-03-04T15:56:47;2.40;;;1.50;;
57889;SDS011;43707;50.184;18.966;2023-03-04T15:59:13;1.90;;;1.30;;
57889;SDS011;43707;50.184;18.966;2023-03-04T16:01:39;2.30;;;1.40;;
57889;SDS011;43707;50.184;18.966;2023-03-04T16:04:04;2.40;;;2.00;;
57889;SDS011;43707;50.184;18.966;2023-03-04T16:06:30;4.20;;;2.10;;
57889;SDS011;43707;50.184;18.966;2023-03-04T16:08:57;2.50;;;1.90;;
57889;SDS011;43707;50.184;18.966;2023-03-04T16:11:24;2.50;;;1.50;;
57889;SDS011;43707;50.184;18.966;2023-03-04T16:13:51;3.80;;;1.90;;
57889;SDS011;43707;50.184;18.966;2023-03-04T16:16:17;2.10;;;1.70;;
57889;SDS011;43707;50.184;18.966;2023-03-04T16:18:42;2.40;;;1.50;;
57889;SDS011;43707;50.184;18.966;2023-03-04T16:21:11;2.50;;;1.80;;
57889;SDS011;43707;50.184;18.966;2023-03-04T16:23:39;5.10;;;1.80;;
57889;SDS011;43707;50.184;18.966;2023-03-04T16:26:09;2.50;;;1.60;;
57889;SDS011;43707;50.184;18.966;2023-03-04T16:28:36;5.40;;;1.90;;
57889;SDS011;43707;50.184;18.966;2023-03-04T16:31:01;2.50;;;1.70;;
57889;SDS011;43707;50.184;18.966;2023-03-04T16:33:27;2.40;;;1.60;;
57889;SDS011;43707;50.184;18.966;2023-03-04T16:35:53;1.90;;;1.40;;
57889;SDS011;43707;50.184;18.966;2023-03-04T16:38:25;3.00;;;1.80;;
57889;SDS011;43707;50.184;18.966;2023-03-04T16:40:54;2.60;;;1.50;;
57889;SDS011;43707;50.184;18.966;2023-03-04T16:43:20;2.80;;;1.50;;
57889;SDS011;43707;50.184;18.966;2023-03-04T16:45:46;1.50;;;1.20;;
57889;SDS011;43707;50.184;18.966;2023-03-04T16:48:12;1.70;;;1.40;;
57889;SDS011;43707;50.184;18.966;2023-03-04T16:50:38;1.60;;;1.50;;
57889;SDS011;43707;50.184;18.966;2023-03-04T16:53:05;2.20;;;1.90;;
57889;SDS011;43707;50.184;18.966;2023-03-04T16:55:41;2.90;;;1.80;;
57889;SDS011;43707;50.184;18.966;2023-03-04T16:58:08;1.50;;;1.30;;
57889;SDS011;43707;50.184;18.966;2023-03-04T17:00:33;1.50;;;1.20;;
57889;SDS011;43707;50.184;18.966;2023-03-04T17:02:59;2.20;;;1.80;;